Time,TemperatureF,DewpointF,PressureIn,WindDirection,WindDirectionDegrees,WindSpeedMPH,WindSpeedGustMPH,Humidity,HourlyPrecipIn,Conditions,Clouds,dailyrainin,SoftwareType,DateUTC
2016-02-12 00:01:00,46.1,43.9,30.21,ESE,117,0.0,0.0,92,0.00,CLR,,0.00,WeatherDisplay:10.37,2016-02-12 08:01:00,
2016-02-12 00:06:00,45.8,43.6,30.21,ESE,117,0.0,0.0,92,0.00,CLR,,0.00,WeatherDisplay:10.37,2016-02-12 08:06:00,
2016-02-12 00:11:00,45.7,43.5,30.21,ESE,117,0.0,0.0,92,0.00,CLR,,0.00,WeatherDisplay:10.37,2016-02-12 08:11:00,
2016-02-12 00:16:00,45.8,43.9,30.21,ESE,117,0.0,0.0,93,0.00,CLR,,0.00,WeatherDisplay:10.37,2016-02-12 08:16:00,
2016-02-12 00:21:00,45.9,44.0,30.20,ESE,117,0.0,0.0,93,0.00,CLR,,0.00,WeatherDisplay:10.37,2016-02-12 08:21:00,
2016-02-12 00:26:00,45.5,43.3,30.20,ESE,117,0.0,0.0,92,0.00,CLR,,0.00,WeatherDisplay:10.37,2016-02-12 08:26:00,
2016-02-12 00:31:00,45.6,43.7,30.20,ESE,117,0.0,0.0,93,0.00,CLR,,0.00,WeatherDisplay:10.37,2016-02-12 08:31:00,
2016-02-12 00:36:00,45.8,43.9,30.20,ESE,117,0.0,0.0,93,0.00,CLR,,0.00,WeatherDisplay:10.37,2016-02-12 08:36:00,
2016-02-12 00:41:00,45.7,43.8,30.20,ESE,117,0.0,0.0,93,0.00,CLR,,0.00,WeatherDisplay:10.37,2016-02-12 08:41:00,
2016-02-12 00:46:00,46.0,44.4,30.20,ESE,117,0.0,0.0,94,0.00,CLR,,0.00,WeatherDisplay:10.37,2016-02-12 08:46:00,
2016-02-12 00:51:00,45.8,43.9,30.20,ESE,117,0.0,0.0,93,0.00,CLR,,0.00,WeatherDisplay:10.37,2016-02-12 08:51:00,
2016-02-12 00:56:00,45.3,43.1,30.20,ESE,117,0.0,0.0,92,0.00,CLR,,0.00,WeatherDisplay:10.37,2016-02-12 08:56:00,
2016-02-12 01:01:00,44.8,42.6,30.21,ESE,117,0.0,0.0,92,0.00,CLR,,0.00,WeatherDisplay:10.37,2016-02-12 09:01:00,
2016-02-12 01:06:00,44.8,42.9,30.20,ESE,117,0.0,0.0,93,0.00,CLR,,0.00,WeatherDisplay:10.37,2016-02-12 09:06:00,
2016-02-12 01:11:00,45.0,43.4,30.21,ESE,117,0.0,0.0,94,0.00,CLR,,0.00,WeatherDisplay:10.37,2016-02-12 09:11:00,
2016-02-12 01:16:00,45.1,43.5,30.20,ESE,117,0.0,0.0,94,0.00,CLR,,0.00,WeatherDisplay:10.37,2016-02-12 09:16:00,
2016-02-12 01:21:00,44.9,43.0,30.20,ESE,117,0.0,0.0,93,0.00,CLR,,0.00,WeatherDisplay:10.37,2016-02-12 09:21:00,
2016-02-12 01:26:00,44.7,42.8,30.21,ESE,117,0.0,0.0,93,0.00,CLR,,0.00,WeatherDisplay:10.37,2016-02-12 09:26:00,
2016-02-12 01:31:00,44.6,42.7,30.20,ESE,117,0.0,0.0,93,0.00,CLR,,0.00,WeatherDisplay:10.37,2016-02-12 09:31:00,
2016-02-12 01:36:00,44.4,42.5,30.21,ESE,117,0.0,0.0,93,0.00,CLR,,0.00,WeatherDisplay:10.37,2016-02-12 09:36:00,
2016-02-12 01:46:00,43.0,41.1,30.21,ESE,117,0.0,0.0,93,0.00,CLR,,0.00,WeatherDisplay:10.37,2016-02-12 09:46:00,
2016-02-12 01:51:00,43.2,41.6,30.21,ESE,117,0.0,0.0,94,0.00,CLR,,0.00,WeatherDisplay:10.37,2016-02-12 09:51:00,
2016-02-12 01:56:00,43.0,41.1,30.21,ESE,117,0.0,0.0,93,0.00,CLR,,0.00,WeatherDisplay:10.37,2016-02-12 09:56:00,
2016-02-12 02:01:00,43.1,41.5,30.20,ESE,117,0.0,0.0,94,0.00,CLR,,0.00,WeatherDisplay:10.37,2016-02-12 10:01:00,
2016-02-12 02:06:00,43.3,41.7,30.21,ESE,117,0.0,0.0,94,0.00,CLR,,0.00,WeatherDisplay:10.37,2016-02-12 10:06:00,
2016-02-12 02:11:00,43.6,42.0,30.21,ESE,117,0.0,0.0,94,0.00,CLR,,0.00,WeatherDisplay:10.37,2016-02-12 10:11:00,
2016-02-12 02:16:00,43.4,41.8,30.21,ESE,117,0.0,0.0,94,0.00,CLR,,0.00,WeatherDisplay:10.37,2016-02-12 10:16:00,
2016-02-12 02:21:00,42.7,40.8,30.21,ESE,117,0.0,0.0,93,0.00,CLR,,0.00,WeatherDisplay:10.37,2016-02-12 10:21:00,
2016-02-12 02:31:00,42.4,40.8,30.20,ESE,117,0.0,0.0,94,0.00,CLR,,0.00,WeatherDisplay:10.37,2016-02-12 10:31:00,
2016-02-12 02:36:00,42.3,40.7,30.20,ESE,117,0.0,0.0,94,0.00,CLR,,0.00,WeatherDisplay:10.37,2016-02-12 10:36:00,
2016-02-12 02:41:00,42.4,41.1,30.20,ESE,117,0.0,0.0,95,0.00,CLR,,0.00,WeatherDisplay:10.37,2016-02-12 10:41:00,
2016-02-12 02:46:00,42.3,40.7,30.20,ESE,117,0.0,0.0,94,0.00,CLR,,0.00,WeatherDisplay:10.37,2016-02-12 10:46:00,
2016-02-12 02:51:00,41.8,40.2,30.20,ESE,117,0.0,0.0,94,0.00,CLR,,0.00,WeatherDisplay:10.37,2016-02-12 10:51:00,
2016-02-12 02:56:00,41.9,40.6,30.20,ESE,117,0.0,0.0,95,0.00,CLR,,0.00,WeatherDisplay:10.37,2016-02-12 10:56:00,
2016-02-12 03:01:00,42.2,40.9,30.20,ESE,117,0.0,0.0,95,0.00,CLR,,0.00,WeatherDisplay:10.37,2016-02-12 11:01:00,
2016-02-12 03:06:00,42.6,41.5,30.20,ESE,117,0.0,0.0,96,0.00,CLR,,0.00,WeatherDisplay:10.37,2016-02-12 11:06:00,
2016-02-12 03:11:00,43.1,41.8,30.20,ESE,117,0.0,0.0,95,0.00,CLR,,0.00,WeatherDisplay:10.37,2016-02-12 11:11:00,
2016-02-12 03:16:00,42.3,40.7,30.20,ESE,117,0.0,0.0,94,0.00,CLR,,0.00,WeatherDisplay:10.37,2016-02-12 11:16:00,
2016-02-12 03:21:00,42.2,40.9,30.20,ESE,117,0.0,0.0,95,0.00,CLR,,0.00,WeatherDisplay:10.37,2016-02-12 11:21:00,
2016-02-12 03:26:00,41.8,40.2,30.20,ESE,117,0.0,0.0,94,0.00,CLR,,0.00,WeatherDisplay:10.37,2016-02-12 11:26:00,
2016-02-12 03:31:00,41.5,39.9,30.20,ESE,117,0.0,0.0,94,0.00,CLR,,0.00,WeatherDisplay:10.37,2016-02-12 11:31:00,
2016-02-12 03:36:00,41.3,39.7,30.20,ESE,117,0.0,0.0,94,0.00,CLR,,0.00,WeatherDisplay:10.37,2016-02-12 11:36:00,
2016-02-12 03:41:00,41.0,39.4,30.20,ESE,117,0.0,0.0,94,0.00,CLR,,0.00,WeatherDisplay:10.37,2016-02-12 11:41:00,
2016-02-12 03:51:00,40.0,38.4,30.20,ESE,117,0.0,0.0,94,0.00,CLR,,0.00,WeatherDisplay:10.37,2016-02-12 11:51:00,
2016-02-12 03:56:00,39.9,38.6,30.20,ESE,117,0.0,0.0,95,0.00,CLR,,0.00,WeatherDisplay:10.37,2016-02-12 11:56:00,
2016-02-12 04:01:00,40.2,38.9,30.20,ESE,117,0.0,0.0,95,0.00,CLR,,0.00,WeatherDisplay:10.37,2016-02-12 12:01:00,
2016-02-12 04:11:00,40.6,39.5,30.20,ESE,117,0.0,0.0,96,0.00,CLR,,0.00,WeatherDisplay:10.37,2016-02-12 12:11:00,
2016-02-12 04:21:00,40.3,39.0,30.20,ESE,117,0.0,0.0,95,0.00,CLR,,0.00,WeatherDisplay:10.37,2016-02-12 12:21:00,
2016-02-12 04:26:00,39.9,38.6,30.20,ESE,117,0.0,0.0,95,0.00,CLR,,0.00,WeatherDisplay:10.37,2016-02-12 12:26:00,
2016-02-12 04:36:00,40.0,38.7,30.21,ESE,117,0.0,0.0,95,0.00,CLR,,0.00,WeatherDisplay:10.37,2016-02-12 12:36:00,
2016-02-12 04:41:00,40.3,39.3,30.21,ESE,117,0.0,0.0,96,0.00,CLR,,0.00,WeatherDisplay:10.37,2016-02-12 12:41:00,
2016-02-12 04:46:00,41.1,40.3,30.21,ESE,117,0.0,0.0,97,0.00,CLR,,0.00,WeatherDisplay:10.37,2016-02-12 12:46:00,
2016-02-12 04:51:00,41.2,40.1,30.21,ESE,117,0.0,0.0,96,0.00,CLR,,0.00,WeatherDisplay:10.37,2016-02-12 12:51:00,
2016-02-12 04:56:00,41.1,40.0,30.21,ESE,117,0.0,0.0,96,0.00,CLR,,0.00,WeatherDisplay:10.37,2016-02-12 12:56:00,
2016-02-12 05:01:00,41.5,40.4,30.21,ESE,117,0.0,0.0,96,0.00,CLR,,0.00,WeatherDisplay:10.37,2016-02-12 13:01:00,
2016-02-12 05:11:00,40.9,39.6,30.21,ESE,117,0.0,0.0,95,0.00,CLR,,0.00,WeatherDisplay:10.37,2016-02-12 13:11:00,
2016-02-12 05:16:00,40.5,39.2,30.21,ESE,117,0.0,0.0,95,0.00,CLR,,0.00,WeatherDisplay:10.37,2016-02-12 13:16:00,
2016-02-12 05:21:00,40.0,38.7,30.21,ESE,117,0.0,0.0,95,0.00,CLR,,0.00,WeatherDisplay:10.37,2016-02-12 13:21:00,
2016-02-12 05:27:00,39.6,38.3,30.21,ESE,117,0.0,0.0,95,0.00,CLR,,0.00,WeatherDisplay:10.37,2016-02-12 13:27:00,
2016-02-12 05:32:00,39.5,38.2,30.21,ESE,117,0.0,0.0,95,0.00,CLR,,0.00,WeatherDisplay:10.37,2016-02-12 13:32:00,
2016-02-12 05:37:00,39.6,38.6,30.21,ESE,117,0.0,0.0,96,0.00,CLR,,0.00,WeatherDisplay:10.37,2016-02-12 13:37:00,
2016-02-12 05:42:00,39.5,38.2,30.21,ESE,117,0.0,0.0,95,0.00,CLR,,0.00,WeatherDisplay:10.37,2016-02-12 13:42:00,
2016-02-12 05:47:00,39.4,38.1,30.21,ESE,117,0.0,0.0,95,0.00,CLR,,0.00,WeatherDisplay:10.37,2016-02-12 13:47:00,
2016-02-12 05:52:00,39.3,38.0,30.21,ESE,117,0.0,0.0,95,0.00,CLR,,0.00,WeatherDisplay:10.37,2016-02-12 13:52:00,
2016-02-12 05:57:00,39.1,38.1,30.21,ESE,117,0.0,0.0,96,0.00,CLR,,0.00,WeatherDisplay:10.37,2016-02-12 13:57:00,
2016-02-12 06:02:00,39.3,38.3,30.22,ESE,117,0.0,0.0,96,0.00,CLR,,0.00,WeatherDisplay:10.37,2016-02-12 14:02:00,